sensor_id;sensor_type;location;lat;lon;timestamp;P1;durP1;ratioP1;P2;durP2;ratioP2
22176;SDS011;11254;50.098;8.726;2023-02-01T00:01:25;5.82;;;2.90;;
22176;SDS011;11254;50.098;8.726;2023-02-01T00:03:59;6.10;;;2.83;;
22176;SDS011;11254;50.098;8.726;2023-02-01T00:06:41;7.03;;;2.97;;
22176;SDS011;11254;50.098;8.726;2023-02-01T00:09:10;6.65;;;2.85;;
22176;SDS011;11254;50.098;8.726;2023-02-01T00:11:39;7.20;;;2.90;;
22176;SDS011;11254;50.098;8.726;2023-02-01T00:14:07;7.18;;;3.00;;
22176;SDS011;11254;50.098;8.726;2023-02-01T00:16:36;6.07;;;2.83;;
22176;SDS011;11254;50.098;8.726;2023-02-01T00:19:05;5.90;;;2.85;;
22176;SDS011;11254;50.098;8.726;2023-02-01T00:21:34;6.63;;;2.90;;
22176;SDS011;11254;50.098;8.726;2023-02-01T00:24:02;6.13;;;3.10;;
22176;SDS011;11254;50.098;8.726;2023-02-01T00:26:33;6.00;;;2.60;;
22176;SDS011;11254;50.098;8.726;2023-02-01T00:29:02;6.70;;;2.80;;
22176;SDS011;11254;50.098;8.726;2023-02-01T00:31:31;6.00;;;2.90;;
22176;SDS011;11254;50.098;8.726;2023-02-01T00:33:59;5.80;;;3.00;;
22176;SDS011;11254;50.098;8.726;2023-02-01T00:36:28;5.95;;;3.38;;
22176;SDS011;11254;50.098;8.726;2023-02-01T00:38:56;5.78;;;2.70;;
22176;SDS011;11254;50.098;8.726;2023-02-01T00:41:25;5.93;;;2.80;;
22176;SDS011;11254;50.098;8.726;2023-02-01T00:43:58;6.63;;;3.20;;
22176;SDS011;11254;50.098;8.726;2023-02-01T00:46:28;5.25;;;2.70;;
22176;SDS011;11254;50.098;8.726;2023-02-01T00:48:57;4.93;;;2.60;;
22176;SDS011;11254;50.098;8.726;2023-02-01T00:51:27;5.25;;;2.67;;
22176;SDS011;11254;50.098;8.726;2023-02-01T00:53:56;6.35;;;3.10;;
22176;SDS011;11254;50.098;8.726;2023-02-01T00:56:24;6.10;;;2.60;;
22176;SDS011;11254;50.098;8.726;2023-02-01T00:58:54;5.75;;;3.05;;
22176;SDS011;11254;50.098;8.726;2023-02-01T01:01:24;7.20;;;3.10;;
22176;SDS011;11254;50.098;8.726;2023-02-01T01:03:55;6.63;;;3.25;;
22176;SDS011;11254;50.098;8.726;2023-02-01T01:06:24;7.30;;;3.25;;
22176;SDS011;11254;50.098;8.726;2023-02-01T01:08:53;5.70;;;3.08;;
22176;SDS011;11254;50.098;8.726;2023-02-01T01:11:23;6.53;;;3.03;;
22176;SDS011;11254;50.098;8.726;2023-02-01T01:13:52;7.97;;;3.03;;
22176;SDS011;11254;50.098;8.726;2023-02-01T01:16:21;6.70;;;3.33;;
22176;SDS011;11254;50.098;8.726;2023-02-01T01:18:51;8.27;;;3.38;;
22176;SDS011;11254;50.098;8.726;2023-02-01T01:21:19;6.75;;;3.55;;
22176;SDS011;11254;50.098;8.726;2023-02-01T01:23:48;5.90;;;3.60;;
22176;SDS011;11254;50.098;8.726;2023-02-01T01:26:18;8.70;;;3.70;;
22176;SDS011;11254;50.098;8.726;2023-02-01T01:28:46;6.78;;;3.30;;
22176;SDS011;11254;50.098;8.726;2023-02-01T01:31:16;8.02;;;4.07;;
22176;SDS011;11254;50.098;8.726;2023-02-01T01:33:47;8.00;;;3.45;;
22176;SDS011;11254;50.098;8.726;2023-02-01T01:36:17;8.60;;;3.92;;
22176;SDS011;11254;50.098;8.726;2023-02-01T01:38:46;7.13;;;3.58;;
22176;SDS011;11254;50.098;8.726;2023-02-01T01:41:15;8.68;;;3.70;;
22176;SDS011;11254;50.098;8.726;2023-02-01T01:43:46;9.55;;;3.78;;
22176;SDS011;11254;50.098;8.726;2023-02-01T01:46:16;12.52;;;3.75;;
22176;SDS011;11254;50.098;8.726;2023-02-01T01:48:45;6.90;;;3.78;;
22176;SDS011;11254;50.098;8.726;2023-02-01T01:51:14;9.73;;;3.95;;
22176;SDS011;11254;50.098;8.726;2023-02-01T01:53:48;8.23;;;4.05;;
22176;SDS011;11254;50.098;8.726;2023-02-01T01:56:18;8.02;;;3.90;;
22176;SDS011;11254;50.098;8.726;2023-02-01T01:58:47;9.30;;;3.95;;
22176;SDS011;11254;50.098;8.726;2023-02-01T02:01:15;10.55;;;4.20;;
22176;SDS011;11254;50.098;8.726;2023-02-01T02:03:44;7.75;;;4.10;;
22176;SDS011;11254;50.098;8.726;2023-02-01T02:06:17;7.63;;;4.13;;
22176;SDS011;11254;50.098;8.726;2023-02-01T02:08:49;9.95;;;4.28;;
22176;SDS011;11254;50.098;8.726;2023-02-01T02:11:17;8.18;;;4.22;;
22176;SDS011;11254;50.098;8.726;2023-02-01T02:13:46;9.38;;;3.97;;
22176;SDS011;11254;50.098;8.726;2023-02-01T02:16:21;9.05;;;3.95;;
22176;SDS011;11254;50.098;8.726;2023-02-01T02:18:56;12.70;;;4.63;;
22176;SDS011;11254;50.098;8.726;2023-02-01T02:21:30;10.02;;;4.53;;
22176;SDS011;11254;50.098;8.726;2023-02-01T02:27:04;8.68;;;4.10;;
22176;SDS011;11254;50.098;8.726;2023-02-01T02:29:54;9.52;;;4.20;;
22176;SDS011;11254;50.098;8.726;2023-02-01T02:32:39;7.97;;;4.40;;
22176;SDS011;11254;50.098;8.726;2023-02-01T02:35:14;9.13;;;4.57;;
22176;SDS011;11254;50.098;8.726;2023-02-01T02:37:46;9.35;;;4.50;;
22176;SDS011;11254;50.098;8.726;2023-02-01T02:40:18;8.05;;;4.68;;
22176;SDS011;11254;50.098;8.726;2023-02-01T02:42:50;8.63;;;4.47;;
22176;SDS011;11254;50.098;8.726;2023-02-01T02:45:41;9.27;;;4.40;;
22176;SDS011;11254;50.098;8.726;2023-02-01T02:48:28;8.55;;;4.57;;
22176;SDS011;11254;50.098;8.726;2023-02-01T02:51:01;8.05;;;4.50;;
22176;SDS011;11254;50.098;8.726;2023-02-01T02:53:51;9.02;;;4.55;;
22176;SDS011;11254;50.098;8.726;2023-02-01T02:56:38;10.52;;;4.30;;
22176;SDS011;11254;50.098;8.726;2023-02-01T02:59:25;7.75;;;4.28;;
22176;SDS011;11254;50.098;8.726;2023-02-01T03:02:13;8.77;;;4.35;;
22176;SDS011;11254;50.098;8.726;2023-02-01T03:04:59;8.85;;;4.00;;
22176;SDS011;11254;50.098;8.726;2023-02-01T03:07:48;7.15;;;3.83;;
22176;SDS011;11254;50.098;8.726;2023-02-01T03:10:21;12.25;;;4.57;;
22176;SDS011;11254;50.098;8.726;2023-02-01T03:12:52;10.13;;;4.60;;
22176;SDS011;11254;50.098;8.726;2023-02-01T03:15:26;8.18;;;3.95;;
22176;SDS011;11254;50.098;8.726;2023-02-01T03:17:58;7.65;;;3.90;;
22176;SDS011;11254;50.098;8.726;2023-02-01T03:20:27;8.40;;;4.15;;
22176;SDS011;11254;50.098;8.726;2023-02-01T03:22:59;12.25;;;4.68;;
22176;SDS011;11254;50.098;8.726;2023-02-01T03:25:29;8.40;;;3.97;;
22176;SDS011;11254;50.098;8.726;2023-02-01T03:27:59;9.68;;;4.38;;
22176;SDS011;11254;50.098;8.726;2023-02-01T03:30:30;9.73;;;4.15;;
22176;SDS011;11254;50.098;8.726;2023-02-01T03:33:00;8.93;;;3.63;;
22176;SDS011;11254;50.098;8.726;2023-02-01T03:35:33;8.50;;;4.30;;
22176;SDS011;11254;50.098;8.726;2023-02-01T03:38:13;9.73;;;3.88;;
22176;SDS011;11254;50.098;8.726;2023-02-01T03:40:46;10.23;;;3.80;;
22176;SDS011;11254;50.098;8.726;2023-02-01T03:43:17;7.05;;;3.17;;
22176;SDS011;11254;50.098;8.726;2023-02-01T03:45:48;7.43;;;3.55;;
22176;SDS011;11254;50.098;8.726;2023-02-01T03:48:18;8.43;;;3.00;;
22176;SDS011;11254;50.098;8.726;2023-02-01T03:50:48;5.57;;;2.88;;
22176;SDS011;11254;50.098;8.726;2023-02-01T03:53:20;5.57;;;2.83;;
22176;SDS011;11254;50.098;8.726;2023-02-01T03:55:50;6.57;;;2.58;;
22176;SDS011;11254;50.098;8.726;2023-02-01T03:58:20;6.90;;;2.88;;
22176;SDS011;11254;50.098;8.726;2023-02-01T04:00:50;6.75;;;2.83;;
22176;SDS011;11254;50.098;8.726;2023-02-01T04:03:19;8.27;;;2.95;;
22176;SDS011;11254;50.098;8.726;2023-02-01T04:05:49;8.80;;;3.20;;
22176;SDS011;11254;50.098;8.726;2023-02-01T04:08:22;7.45;;;3.10;;
22176;SDS011;11254;50.098;8.726;2023-02-01T04:10:51;8.25;;;3.50;;
22176;SDS011;11254;50.098;8.726;2023-02-01T04:13:19;6.68;;;2.88;;
22176;SDS011;11254;50.098;8.726;2023-02-01T04:15:47;7.32;;;3.45;;
22176;SDS011;11254;50.098;8.726;2023-02-01T04:18:16;7.03;;;3.97;;
22176;SDS011;11254;50.098;8.726;2023-02-01T04:20:45;9.48;;;3.50;;
22176;SDS011;11254;50.098;8.726;2023-02-01T04:23:13;10.80;;;4.38;;
22176;SDS011;11254;50.098;8.726;2023-02-01T04:25:43;8.68;;;4.03;;
22176;SDS011;11254;50.098;8.726;2023-02-01T04:28:12;9.25;;;4.18;;
22176;SDS011;11254;50.098;8.726;2023-02-01T04:30:40;9.32;;;3.63;;
22176;SDS011;11254;50.098;8.726;2023-02-01T04:33:08;8.32;;;3.38;;
22176;SDS011;11254;50.098;8.726;2023-02-01T04:35:40;6.78;;;3.50;;
22176;SDS011;11254;50.098;8.726;2023-02-01T04:38:08;9.18;;;4.13;;
22176;SDS011;11254;50.098;8.726;2023-02-01T04:40:36;8.60;;;3.80;;
22176;SDS011;11254;50.098;8.726;2023-02-01T04:43:06;9.02;;;3.78;;
22176;SDS011;11254;50.098;8.726;2023-02-01T04:45:34;8.98;;;4.93;;
22176;SDS011;11254;50.098;8.726;2023-02-01T04:48:03;10.10;;;3.97;;
22176;SDS011;11254;50.098;8.726;2023-02-01T04:50:31;11.02;;;4.03;;
22176;SDS011;11254;50.098;8.726;2023-02-01T04:53:00;9.68;;;3.83;;
22176;SDS011;11254;50.098;8.726;2023-02-01T04:55:28;9.32;;;3.85;;
22176;SDS011;11254;50.098;8.726;2023-02-01T04:57:57;10.48;;;3.88;;
22176;SDS011;11254;50.098;8.726;2023-02-01T05:00:26;9.88;;;4.28;;
22176;SDS011;11254;50.098;8.726;2023-02-01T05:02:55;11.55;;;3.90;;
22176;SDS011;11254;50.098;8.726;2023-02-01T05:05:23;8.48;;;4.22;;
22176;SDS011;11254;50.098;8.726;2023-02-01T05:07:51;8.68;;;4.03;;
22176;SDS011;11254;50.098;8.726;2023-02-01T05:10:19;9.65;;;4.43;;
22176;SDS011;11254;50.098;8.726;2023-02-01T05:12:48;9.70;;;3.60;;
22176;SDS011;11254;50.098;8.726;2023-02-01T05:15:36;7.43;;;3.60;;
22176;SDS011;11254;50.098;8.726;2023-02-01T05:18:04;7.70;;;3.80;;
22176;SDS011;11254;50.098;8.726;2023-02-01T05:20:32;10.57;;;3.95;;
22176;SDS011;11254;50.098;8.726;2023-02-01T05:23:01;9.30;;;3.15;;
22176;SDS011;11254;50.098;8.726;2023-02-01T05:25:29;9.98;;;3.63;;
22176;SDS011;11254;50.098;8.726;2023-02-01T05:27:57;7.53;;;2.88;;
22176;SDS011;11254;50.098;8.726;2023-02-01T05:30:25;7.65;;;2.83;;
22176;SDS011;11254;50.098;8.726;2023-02-01T05:32:55;7.80;;;3.08;;
22176;SDS011;11254;50.098;8.726;2023-02-01T05:35:23;9.90;;;3.10;;
22176;SDS011;11254;50.098;8.726;2023-02-01T05:37:52;8.63;;;2.85;;
22176;SDS011;11254;50.098;8.726;2023-02-01T05:40:20;10.32;;;3.20;;
22176;SDS011;11254;50.098;8.726;2023-02-01T05:42:49;10.13;;;3.10;;
22176;SDS011;11254;50.098;8.726;2023-02-01T05:45:17;9.70;;;2.63;;
22176;SDS011;11254;50.098;8.726;2023-02-01T05:47:45;10.60;;;2.80;;
22176;SDS011;11254;50.098;8.726;2023-02-01T05:50:15;10.43;;;2.97;;
22176;SDS011;11254;50.098;8.726;2023-02-01T05:52:44;15.40;;;3.20;;
22176;SDS011;11254;50.098;8.726;2023-02-01T05:55:12;10.75;;;3.03;;
22176;SDS011;11254;50.098;8.726;2023-02-01T05:57:40;7.30;;;2.22;;
22176;SDS011;11254;50.098;8.726;2023-02-01T06:00:09;6.72;;;2.53;;
22176;SDS011;11254;50.098;8.726;2023-02-01T06:02:38;8.30;;;2.55;;
22176;SDS011;11254;50.098;8.726;2023-02-01T06:05:07;6.25;;;2.63;;
22176;SDS011;11254;50.098;8.726;2023-02-01T06:07:36;10.18;;;2.60;;
22176;SDS011;11254;50.098;8.726;2023-02-01T06:10:05;12.73;;;2.70;;
22176;SDS011;11254;50.098;8.726;2023-02-01T06:12:33;6.60;;;2.88;;
22176;SDS011;11254;50.098;8.726;2023-02-01T06:15:02;6.15;;;2.33;;
22176;SDS011;11254;50.098;8.726;2023-02-01T06:17:30;5.15;;;2.17;;
22176;SDS011;11254;50.098;8.726;2023-02-01T06:19:59;9.52;;;2.70;;
22176;SDS011;11254;50.098;8.726;2023-02-01T06:22:27;6.03;;;2.30;;
22176;SDS011;11254;50.098;8.726;2023-02-01T06:24:57;10.85;;;2.63;;
22176;SDS011;11254;50.098;8.726;2023-02-01T06:27:26;7.95;;;2.67;;
22176;SDS011;11254;50.098;8.726;2023-02-01T06:29:54;13.32;;;2.60;;
22176;SDS011;11254;50.098;8.726;2023-02-01T06:32:23;9.15;;;2.90;;
22176;SDS011;11254;50.098;8.726;2023-02-01T06:34:51;9.73;;;2.25;;
22176;SDS011;11254;50.098;8.726;2023-02-01T06:37:19;6.32;;;2.75;;
22176;SDS011;11254;50.098;8.726;2023-02-01T06:39:48;5.93;;;2.35;;
22176;SDS011;11254;50.098;8.726;2023-02-01T06:42:18;7.32;;;2.30;;
22176;SDS011;11254;50.098;8.726;2023-02-01T06:44:46;6.57;;;2.45;;
22176;SDS011;11254;50.098;8.726;2023-02-01T06:47:14;8.27;;;2.47;;
22176;SDS011;11254;50.098;8.726;2023-02-01T06:49:42;9.25;;;2.55;;
22176;SDS011;11254;50.098;8.726;2023-02-01T06:52:11;12.23;;;2.85;;
22176;SDS011;11254;50.098;8.726;2023-02-01T06:54:39;13.25;;;2.65;;
22176;SDS011;11254;50.098;8.726;2023-02-01T06:57:07;6.53;;;2.20;;
22176;SDS011;11254;50.098;8.726;2023-02-01T06:59:37;10.95;;;2.72;;
22176;SDS011;11254;50.098;8.726;2023-02-01T07:02:05;8.85;;;3.05;;
22176;SDS011;11254;50.098;8.726;2023-02-01T07:04:33;7.68;;;2.50;;
22176;SDS011;11254;50.098;8.726;2023-02-01T07:10:56;7.78;;;2.63;;
22176;SDS011;11254;50.098;8.726;2023-02-01T07:13:25;9.35;;;2.42;;
22176;SDS011;11254;50.098;8.726;2023-02-01T07:15:56;13.70;;;4.22;;
22176;SDS011;11254;50.098;8.726;2023-02-01T07:18:25;11.43;;;4.40;;
22176;SDS011;11254;50.098;8.726;2023-02-01T07:20:53;18.92;;;8.60;;
22176;SDS011;11254;50.098;8.726;2023-02-01T07:23:22;16.70;;;7.40;;
22176;SDS011;11254;50.098;8.726;2023-02-01T07:25:52;17.23;;;7.13;;
22176;SDS011;11254;50.098;8.726;2023-02-01T07:28:21;14.55;;;6.13;;
22176;SDS011;11254;50.098;8.726;2023-02-01T07:30:49;11.88;;;3.60;;
22176;SDS011;11254;50.098;8.726;2023-02-01T07:33:20;7.75;;;2.90;;
22176;SDS011;11254;50.098;8.726;2023-02-01T07:35:48;10.60;;;3.33;;
22176;SDS011;11254;50.098;8.726;2023-02-01T07:38:17;7.95;;;3.22;;
22176;SDS011;11254;50.098;8.726;2023-02-01T07:40:47;12.50;;;2.90;;
22176;SDS011;11254;50.098;8.726;2023-02-01T07:43:16;8.05;;;2.53;;
22176;SDS011;11254;50.098;8.726;2023-02-01T07:45:49;13.10;;;3.05;;
22176;SDS011;11254;50.098;8.726;2023-02-01T07:48:19;10.80;;;2.58;;
22176;SDS011;11254;50.098;8.726;2023-02-01T07:50:48;12.20;;;3.30;;
22176;SDS011;11254;50.098;8.726;2023-02-01T07:53:16;15.80;;;3.47;;
22176;SDS011;11254;50.098;8.726;2023-02-01T07:55:44;12.85;;;3.95;;
22176;SDS011;11254;50.098;8.726;2023-02-01T07:58:14;12.63;;;3.47;;
22176;SDS011;11254;50.098;8.726;2023-02-01T08:00:42;10.40;;;3.03;;
22176;SDS011;11254;50.098;8.726;2023-02-01T08:03:30;8.48;;;2.92;;
22176;SDS011;11254;50.098;8.726;2023-02-01T08:06:44;11.65;;;2.47;;
22176;SDS011;11254;50.098;8.726;2023-02-01T08:09:12;9.55;;;2.47;;
22176;SDS011;11254;50.098;8.726;2023-02-01T08:11:41;11.02;;;2.55;;
22176;SDS011;11254;50.098;8.726;2023-02-01T08:14:09;12.23;;;2.60;;
22176;SDS011;11254;50.098;8.726;2023-02-01T08:16:37;11.35;;;2.25;;
22176;SDS011;11254;50.098;8.726;2023-02-01T08:19:07;8.40;;;1.80;;
22176;SDS011;11254;50.098;8.726;2023-02-01T08:21:35;8.77;;;2.40;;
22176;SDS011;11254;50.098;8.726;2023-02-01T08:24:04;12.23;;;2.58;;
22176;SDS011;11254;50.098;8.726;2023-02-01T08:26:33;10.82;;;2.70;;
22176;SDS011;11254;50.098;8.726;2023-02-01T08:29:03;12.38;;;2.50;;
22176;SDS011;11254;50.098;8.726;2023-02-01T08:31:31;7.38;;;1.80;;
22176;SDS011;11254;50.098;8.726;2023-02-01T08:34:00;11.15;;;2.50;;
22176;SDS011;11254;50.098;8.726;2023-02-01T08:36:32;8.80;;;2.17;;
22176;SDS011;11254;50.098;8.726;2023-02-01T08:39:00;12.40;;;2.60;;
22176;SDS011;11254;50.098;8.726;2023-02-01T08:41:32;8.20;;;2.13;;
22176;SDS011;11254;50.098;8.726;2023-02-01T08:44:00;9.75;;;2.75;;
22176;SDS011;11254;50.098;8.726;2023-02-01T08:46:28;10.60;;;2.53;;
22176;SDS011;11254;50.098;8.726;2023-02-01T08:48:57;9.35;;;2.60;;
22176;SDS011;11254;50.098;8.726;2023-02-01T08:51:25;10.00;;;2.92;;
22176;SDS011;11254;50.098;8.726;2023-02-01T08:53:55;9.38;;;3.10;;
22176;SDS011;11254;50.098;8.726;2023-02-01T08:56:23;8.20;;;3.10;;
22176;SDS011;11254;50.098;8.726;2023-02-01T08:58:52;11.90;;;2.83;;
22176;SDS011;11254;50.098;8.726;2023-02-01T09:01:20;4.32;;;1.70;;
22176;SDS011;11254;50.098;8.726;2023-02-01T09:03:50;11.68;;;2.80;;
22176;SDS011;11254;50.098;8.726;2023-02-01T09:06:47;8.73;;;2.20;;
22176;SDS011;11254;50.098;8.726;2023-02-01T09:09:17;10.32;;;2.80;;
22176;SDS011;11254;50.098;8.726;2023-02-01T09:11:45;11.80;;;2.03;;
22176;SDS011;11254;50.098;8.726;2023-02-01T09:14:14;12.00;;;3.00;;
22176;SDS011;11254;50.098;8.726;2023-02-01T09:16:42;12.30;;;3.15;;
22176;SDS011;11254;50.098;8.726;2023-02-01T09:19:11;12.02;;;3.47;;
22176;SDS011;11254;50.098;8.726;2023-02-01T09:21:52;15.63;;;2.70;;
22176;SDS011;11254;50.098;8.726;2023-02-01T09:24:22;12.88;;;2.95;;
22176;SDS011;11254;50.098;8.726;2023-02-01T09:26:50;10.98;;;2.20;;
22176;SDS011;11254;50.098;8.726;2023-02-01T09:29:19;8.88;;;2.17;;
22176;SDS011;11254;50.098;8.726;2023-02-01T09:31:47;14.07;;;3.13;;
22176;SDS011;11254;50.098;8.726;2023-02-01T09:34:29;14.25;;;2.20;;
22176;SDS011;11254;50.098;8.726;2023-02-01T09:36:57;11.05;;;2.70;;
22176;SDS011;11254;50.098;8.726;2023-02-01T09:39:27;11.15;;;2.40;;
22176;SDS011;11254;50.098;8.726;2023-02-01T09:41:59;9.52;;;2.30;;
22176;SDS011;11254;50.098;8.726;2023-02-01T09:44:48;10.77;;;2.03;;
22176;SDS011;11254;50.098;8.726;2023-02-01T09:47:19;11.43;;;2.03;;
22176;SDS011;11254;50.098;8.726;2023-02-01T09:49:49;10.05;;;2.80;;
22176;SDS011;11254;50.098;8.726;2023-02-01T09:52:19;8.20;;;1.80;;
22176;SDS011;11254;50.098;8.726;2023-02-01T09:54:55;10.63;;;2.28;;
22176;SDS011;11254;50.098;8.726;2023-02-01T09:57:28;6.85;;;2.45;;
22176;SDS011;11254;50.098;8.726;2023-02-01T10:00:00;11.20;;;2.55;;
22176;SDS011;11254;50.098;8.726;2023-02-01T10:02:38;7.72;;;2.60;;
22176;SDS011;11254;50.098;8.726;2023-02-01T10:05:54;5.63;;;2.00;;
22176;SDS011;11254;50.098;8.726;2023-02-01T10:08:29;9.05;;;2.60;;
22176;SDS011;11254;50.098;8.726;2023-02-01T10:11:03;10.30;;;2.00;;
22176;SDS011;11254;50.098;8.726;2023-02-01T10:13:38;10.60;;;2.38;;
22176;SDS011;11254;50.098;8.726;2023-02-01T10:16:15;10.90;;;2.30;;
22176;SDS011;11254;50.098;8.726;2023-02-01T10:18:50;10.57;;;2.28;;
22176;SDS011;11254;50.098;8.726;2023-02-01T10:21:24;7.82;;;2.20;;
22176;SDS011;11254;50.098;8.726;2023-02-01T10:23:59;7.47;;;2.30;;
22176;SDS011;11254;50.098;8.726;2023-02-01T10:26:45;6.43;;;1.83;;
22176;SDS011;11254;50.098;8.726;2023-02-01T10:29:15;11.73;;;3.17;;
22176;SDS011;11254;50.098;8.726;2023-02-01T10:31:45;9.10;;;2.13;;
22176;SDS011;11254;50.098;8.726;2023-02-01T10:34:15;10.77;;;2.60;;
22176;SDS011;11254;50.098;8.726;2023-02-01T10:36:50;10.73;;;2.75;;
22176;SDS011;11254;50.098;8.726;2023-02-01T10:39:20;10.07;;;3.38;;
22176;SDS011;11254;50.098;8.726;2023-02-01T10:41:50;12.00;;;4.07;;
22176;SDS011;11254;50.098;8.726;2023-02-01T10:44:19;15.15;;;3.15;;
22176;SDS011;11254;50.098;8.726;2023-02-01T10:46:49;8.18;;;3.03;;
22176;SDS011;11254;50.098;8.726;2023-02-01T10:49:18;11.32;;;5.13;;
22176;SDS011;11254;50.098;8.726;2023-02-01T10:51:50;9.48;;;3.42;;
22176;SDS011;11254;50.098;8.726;2023-02-01T10:54:19;9.82;;;3.17;;
22176;SDS011;11254;50.098;8.726;2023-02-01T10:56:49;8.70;;;2.22;;
22176;SDS011;11254;50.098;8.726;2023-02-01T10:59:20;7.78;;;2.30;;
22176;SDS011;11254;50.098;8.726;2023-02-01T11:01:49;6.03;;;2.13;;
22176;SDS011;11254;50.098;8.726;2023-02-01T11:04:18;11.95;;;2.08;;
22176;SDS011;11254;50.098;8.726;2023-02-01T11:06:47;9.07;;;2.05;;
22176;SDS011;11254;50.098;8.726;2023-02-01T11:09:18;19.63;;;8.90;;
22176;SDS011;11254;50.098;8.726;2023-02-01T11:11:56;11.43;;;2.30;;
22176;SDS011;11254;50.098;8.726;2023-02-01T11:14:35;11.50;;;2.25;;
22176;SDS011;11254;50.098;8.726;2023-02-01T11:17:16;9.13;;;1.95;;
22176;SDS011;11254;50.098;8.726;2023-02-01T11:19:45;10.20;;;2.53;;
22176;SDS011;11254;50.098;8.726;2023-02-01T11:22:14;9.15;;;2.20;;
22176;SDS011;11254;50.098;8.726;2023-02-01T11:24:44;10.88;;;2.38;;
22176;SDS011;11254;50.098;8.726;2023-02-01T11:27:15;9.85;;;2.20;;
22176;SDS011;11254;50.098;8.726;2023-02-01T11:29:54;9.57;;;1.92;;
22176;SDS011;11254;50.098;8.726;2023-02-01T11:32:23;9.57;;;1.77;;
22176;SDS011;11254;50.098;8.726;2023-02-01T11:34:53;16.30;;;2.88;;
22176;SDS011;11254;50.098;8.726;2023-02-01T11:37:23;9.48;;;2.03;;
22176;SDS011;11254;50.098;8.726;2023-02-01T11:39:53;10.55;;;2.13;;
22176;SDS011;11254;50.098;8.726;2023-02-01T11:42:23;17.20;;;2.22;;
22176;SDS011;11254;50.098;8.726;2023-02-01T11:45:07;10.52;;;2.55;;
22176;SDS011;11254;50.098;8.726;2023-02-01T11:47:40;10.52;;;1.85;;
22176;SDS011;11254;50.098;8.726;2023-02-01T11:50:12;9.38;;;1.60;;
22176;SDS011;11254;50.098;8.726;2023-02-01T11:52:52;7.75;;;1.92;;
22176;SDS011;11254;50.098;8.726;2023-02-01T11:58:21;11.13;;;1.98;;
22176;SDS011;11254;50.098;8.726;2023-02-01T12:01:06;16.00;;;2.97;;
22176;SDS011;11254;50.098;8.726;2023-02-01T12:06:48;12.65;;;2.30;;
22176;SDS011;11254;50.098;8.726;2023-02-01T12:09:33;13.07;;;3.17;;
22176;SDS011;11254;50.098;8.726;2023-02-01T12:12:08;7.32;;;1.67;;
22176;SDS011;11254;50.098;8.726;2023-02-01T12:14:52;10.20;;;2.00;;
22176;SDS011;11254;50.098;8.726;2023-02-01T12:17:47;8.63;;;3.00;;
22176;SDS011;11254;50.098;8.726;2023-02-01T12:20:21;7.65;;;1.95;;
22176;SDS011;11254;50.098;8.726;2023-02-01T12:22:55;8.77;;;1.90;;
22176;SDS011;11254;50.098;8.726;2023-02-01T12:25:40;6.65;;;2.13;;
22176;SDS011;11254;50.098;8.726;2023-02-01T12:28:15;9.40;;;1.85;;
22176;SDS011;11254;50.098;8.726;2023-02-01T12:30:59;9.85;;;3.25;;
22176;SDS011;11254;50.098;8.726;2023-02-01T12:33:37;10.52;;;2.20;;
22176;SDS011;11254;50.098;8.726;2023-02-01T12:36:10;17.83;;;6.72;;
22176;SDS011;11254;50.098;8.726;2023-02-01T12:38:48;11.52;;;3.08;;
22176;SDS011;11254;50.098;8.726;2023-02-01T12:41:29;8.32;;;2.00;;
22176;SDS011;11254;50.098;8.726;2023-02-01T12:44:02;14.05;;;2.28;;
22176;SDS011;11254;50.098;8.726;2023-02-01T12:46:37;11.05;;;3.70;;
22176;SDS011;11254;50.098;8.726;2023-02-01T12:49:10;10.10;;;3.33;;
22176;SDS011;11254;50.098;8.726;2023-02-01T12:51:41;7.22;;;2.20;;
22176;SDS011;11254;50.098;8.726;2023-02-01T12:54:15;15.45;;;3.92;;
22176;SDS011;11254;50.098;8.726;2023-02-01T12:56:59;11.93;;;3.13;;
22176;SDS011;11254;50.098;8.726;2023-02-01T12:59:33;9.30;;;1.92;;
22176;SDS011;11254;50.098;8.726;2023-02-01T13:02:08;9.82;;;2.00;;
22176;SDS011;11254;50.098;8.726;2023-02-01T13:05:09;12.07;;;2.42;;
22176;SDS011;11254;50.098;8.726;2023-02-01T13:07:51;10.82;;;2.00;;
22176;SDS011;11254;50.098;8.726;2023-02-01T13:10:32;10.65;;;2.17;;
22176;SDS011;11254;50.098;8.726;2023-02-01T13:13:03;12.07;;;2.03;;
22176;SDS011;11254;50.098;8.726;2023-02-01T13:15:38;8.15;;;2.03;;
22176;SDS011;11254;50.098;8.726;2023-02-01T13:18:19;9.35;;;2.35;;
22176;SDS011;11254;50.098;8.726;2023-02-01T13:20:50;8.20;;;2.15;;
22176;SDS011;11254;50.098;8.726;2023-02-01T13:23:27;12.77;;;2.20;;
22176;SDS011;11254;50.098;8.726;2023-02-01T13:26:07;10.15;;;2.47;;
22176;SDS011;11254;50.098;8.726;2023-02-01T13:28:39;11.18;;;2.17;;
22176;SDS011;11254;50.098;8.726;2023-02-01T13:31:19;12.07;;;1.98;;
22176;SDS011;11254;50.098;8.726;2023-02-01T13:34:06;21.20;;;6.50;;
22176;SDS011;11254;50.098;8.726;2023-02-01T13:39:45;12.15;;;2.20;;
22176;SDS011;11254;50.098;8.726;2023-02-01T13:42:19;8.23;;;1.75;;
22176;SDS011;11254;50.098;8.726;2023-02-01T13:44:52;11.25;;;2.22;;
22176;SDS011;11254;50.098;8.726;2023-02-01T13:47:35;8.88;;;2.33;;
22176;SDS011;11254;50.098;8.726;2023-02-01T13:50:13;11.20;;;1.80;;
22176;SDS011;11254;50.098;8.726;2023-02-01T13:52:51;5.95;;;1.58;;
22176;SDS011;11254;50.098;8.726;2023-02-01T13:55:26;10.35;;;2.05;;
22176;SDS011;11254;50.098;8.726;2023-02-01T13:58:02;7.43;;;1.95;;
22176;SDS011;11254;50.098;8.726;2023-02-01T14:00:33;13.38;;;2.08;;
22176;SDS011;11254;50.098;8.726;2023-02-01T14:03:11;9.43;;;2.30;;
22176;SDS011;11254;50.098;8.726;2023-02-01T14:11:50;12.40;;;1.80;;
22176;SDS011;11254;50.098;8.726;2023-02-01T14:23:03;11.23;;;3.03;;
22176;SDS011;11254;50.098;8.726;2023-02-01T14:25:32;18.90;;;3.78;;
22176;SDS011;11254;50.098;8.726;2023-02-01T14:28:06;6.15;;;2.03;;
22176;SDS011;11254;50.098;8.726;2023-02-01T14:30:41;7.38;;;1.88;;
22176;SDS011;11254;50.098;8.726;2023-02-01T14:33:17;13.13;;;3.15;;
22176;SDS011;11254;50.098;8.726;2023-02-01T14:36:00;9.20;;;2.33;;
22176;SDS011;11254;50.098;8.726;2023-02-01T14:38:31;10.50;;;2.83;;
22176;SDS011;11254;50.098;8.726;2023-02-01T14:41:16;8.98;;;2.80;;
22176;SDS011;11254;50.098;8.726;2023-02-01T14:47:08;10.48;;;2.17;;
22176;SDS011;11254;50.098;8.726;2023-02-01T14:49:39;10.27;;;2.58;;
22176;SDS011;11254;50.098;8.726;2023-02-01T14:52:12;8.07;;;1.67;;
22176;SDS011;11254;50.098;8.726;2023-02-01T14:54:43;9.73;;;2.17;;
22176;SDS011;11254;50.098;8.726;2023-02-01T14:57:19;10.77;;;3.30;;
22176;SDS011;11254;50.098;8.726;2023-02-01T14:59:53;9.55;;;1.70;;
22176;SDS011;11254;50.098;8.726;2023-02-01T15:02:26;13.77;;;2.13;;
22176;SDS011;11254;50.098;8.726;2023-02-01T15:04:58;7.03;;;2.10;;
22176;SDS011;11254;50.098;8.726;2023-02-01T15:07:29;15.48;;;1.80;;
22176;SDS011;11254;50.098;8.726;2023-02-01T15:09:58;9.50;;;1.70;;
22176;SDS011;11254;50.098;8.726;2023-02-01T15:12:27;16.25;;;3.53;;
22176;SDS011;11254;50.098;8.726;2023-02-01T15:15:10;13.55;;;1.83;;
22176;SDS011;11254;50.098;8.726;2023-02-01T15:17:40;10.38;;;2.30;;
22176;SDS011;11254;50.098;8.726;2023-02-01T15:20:13;9.48;;;1.73;;
22176;SDS011;11254;50.098;8.726;2023-02-01T15:22:51;9.38;;;2.28;;
22176;SDS011;11254;50.098;8.726;2023-02-01T15:25:21;10.48;;;2.00;;
22176;SDS011;11254;50.098;8.726;2023-02-01T15:27:51;10.38;;;1.88;;
22176;SDS011;11254;50.098;8.726;2023-02-01T15:30:21;9.32;;;1.50;;
22176;SDS011;11254;50.098;8.726;2023-02-01T15:32:52;7.45;;;2.00;;
22176;SDS011;11254;50.098;8.726;2023-02-01T15:35:35;8.63;;;1.75;;
22176;SDS011;11254;50.098;8.726;2023-02-01T15:40:54;7.78;;;2.00;;
22176;SDS011;11254;50.098;8.726;2023-02-01T15:43:23;6.63;;;1.58;;
22176;SDS011;11254;50.098;8.726;2023-02-01T15:45:55;7.45;;;1.90;;
22176;SDS011;11254;50.098;8.726;2023-02-01T15:48:25;6.40;;;1.52;;
22176;SDS011;11254;50.098;8.726;2023-02-01T15:50:54;7.60;;;1.90;;